Time;durP1;ratioP1;P1;durP2;ratioP2;P2;SDS_P1;SDS_P2;PMS_P1;PMS_P2;Temp;Humidity;BMP_temperature;BMP_pressure;BME280_temperature;BME280_humidity;BME280_pressure;Samples;Min_cycle;Max_cycle;Signal;HPM_P1;HPM_P2
2022/07/28 00:00:37;;;;;;;4.70;2.40;;;16.90;99.90;;;;;;10529390;28;20042;-82
2022/07/28 00:05:37;;;;;;;3.97;2.35;;;16.80;99.90;;;;;;10529621;28;20039;-81
2022/07/28 00:10:38;;;;;;;3.92;2.40;;;16.80;99.90;;;;;;10523350;28;20028;-82
2022/07/28 00:15:38;;;;;;;4.45;2.33;;;16.80;99.90;;;;;;10524850;28;20055;-82
2022/07/28 00:20:39;;;;;;;4.55;2.58;;;16.70;99.90;;;;;;10526821;28;20387;-82
2022/07/28 00:25:39;;;;;;;4.50;2.33;;;16.70;99.90;;;;;;10527750;28;20048;-84
2022/07/28 00:30:40;;;;;;;2.83;1.92;;;16.70;99.90;;;;;;10526751;28;20036;-81
2022/07/28 00:35:41;;;;;;;4.80;2.42;;;16.70;99.90;;;;;;10526761;28;20036;-81
2022/07/28 00:46:01;;;;;;;4.05;2.50;;;16.60;99.90;;;;;;10530925;28;20115;-81
2022/07/28 00:51:01;;;;;;;11.27;3.28;;;16.60;99.90;;;;;;10533868;28;20044;-81
2022/07/28 00:56:03;;;;;;;5.40;2.80;;;16.50;99.90;;;;;;10536202;28;20048;-81
2022/07/28 01:01:05;;;;;;;5.45;2.40;;;16.30;99.90;;;;;;10533787;28;20063;-81
2022/07/28 01:06:59;;;;;;;3.63;2.17;;;16.20;99.90;;;;;;10533695;28;20036;-81
2022/07/28 01:12:03;;;;;;;6.15;2.92;;;16.10;99.90;;;;;;10436867;28;20056;-81
2022/07/28 01:17:18;;;;;;;5.20;2.30;;;16.00;99.90;;;;;;10565015;22;20487;-81
2022/07/28 01:22:28;;;;;;;4.13;2.53;;;15.80;99.90;;;;;;10560096;28;20042;-81
2022/07/28 01:28:03;;;;;;;5.82;2.67;;;15.80;99.90;;;;;;10556233;28;20023;-81
2022/07/28 01:33:15;;;;;;;7.65;2.97;;;15.70;99.90;;;;;;10549858;28;20097;-81
2022/07/28 01:38:17;;;;;;;5.25;2.58;;;15.60;99.90;;;;;;10567558;28;20723;-81
2022/07/28 01:43:23;;;;;;;5.00;2.85;;;15.60;99.90;;;;;;10563406;28;20031;-81
2022/07/28 01:48:24;;;;;;;9.15;3.80;;;15.70;99.90;;;;;;10552925;28;20020;-80
2022/07/28 01:53:26;;;;;;;4.53;2.60;;;15.70;99.90;;;;;;10557144;28;20038;-80
2022/07/28 01:58:29;;;;;;;9.95;3.15;;;15.70;99.90;;;;;;10552985;28;20457;-80
2022/07/28 02:03:31;;;;;;;4.78;2.97;;;15.60;99.90;;;;;;10551109;28;20016;-80
2022/07/28 02:08:34;;;;;;;6.72;3.13;;;15.60;99.90;;;;;;10546679;28;20372;-80
2022/07/28 02:13:36;;;;;;;8.52;3.10;;;15.60;99.90;;;;;;10538006;28;20058;-80
2022/07/28 02:18:38;;;;;;;8.32;2.90;;;15.60;99.90;;;;;;10543439;28;20084;-80
2022/07/28 02:23:42;;;;;;;8.25;3.17;;;15.50;99.90;;;;;;10537902;28;20032;-80
2022/07/28 02:28:45;;;;;;;7.13;3.45;;;15.50;99.90;;;;;;10543230;28;20032;-80
2022/07/28 02:33:47;;;;;;;7.95;4.13;;;15.50;99.90;;;;;;10546550;28;20035;-80
2022/07/28 02:38:49;;;;;;;5.20;2.75;;;15.40;99.90;;;;;;10556597;28;20710;-80
2022/07/28 02:43:53;;;;;;;10.05;3.65;;;15.40;99.90;;;;;;10535274;28;20360;-80
2022/07/28 02:49:05;;;;;;;7.53;3.40;;;15.40;99.90;;;;;;10534659;28;20407;-80
2022/07/28 02:54:06;;;;;;;6.53;2.92;;;15.40;99.90;;;;;;10542039;28;20043;-80
2022/07/28 02:59:08;;;;;;;5.47;2.63;;;15.40;99.90;;;;;;10553949;28;20035;-80
2022/07/28 03:04:10;;;;;;;6.65;2.70;;;15.40;99.90;;;;;;10547710;28;20043;-80
2022/07/28 03:09:11;;;;;;;6.25;3.00;;;15.50;99.90;;;;;;10546460;28;20030;-80
2022/07/28 03:14:11;;;;;;;5.38;2.75;;;15.40;99.90;;;;;;10550657;28;20058;-80
2022/07/28 03:19:12;;;;;;;5.22;2.78;;;15.30;99.90;;;;;;10543548;28;20077;-81
2022/07/28 03:24:13;;;;;;;6.57;3.20;;;15.20;99.90;;;;;;10559580;28;20042;-79
2022/07/28 03:29:16;;;;;;;5.50;3.00;;;15.20;99.90;;;;;;10540786;28;20031;-80
2022/07/28 03:34:17;;;;;;;4.55;2.42;;;15.20;99.90;;;;;;10541525;28;20100;-79
2022/07/28 03:39:17;;;;;;;7.80;2.85;;;15.20;99.90;;;;;;10548081;28;20097;-80
2022/07/28 03:44:19;;;;;;;6.43;3.13;;;15.40;99.90;;;;;;10539106;28;20028;-82
2022/07/28 03:49:19;;;;;;;7.40;2.50;;;15.50;99.90;;;;;;10539760;28;20372;-81
2022/07/28 03:54:20;;;;;;;9.82;3.00;;;15.50;99.90;;;;;;10545889;28;20036;-82
2022/07/28 03:59:21;;;;;;;7.00;2.92;;;15.60;99.90;;;;;;10541750;28;20035;-81
2022/07/28 04:04:22;;;;;;;5.80;2.58;;;15.60;99.90;;;;;;10555477;28;20054;-81
2022/07/28 04:09:22;;;;;;;4.80;2.35;;;15.60;99.90;;;;;;10549734;28;20028;-80
2022/07/28 04:14:23;;;;;;;6.55;2.97;;;15.50;99.90;;;;;;10553108;28;20526;-82
2022/07/28 04:19:24;;;;;;;6.57;2.88;;;15.40;99.90;;;;;;10552171;28;20360;-81
2022/07/28 04:24:24;;;;;;;6.45;2.85;;;15.30;99.90;;;;;;10563369;28;20568;-81
2022/07/28 04:29:25;;;;;;;6.55;3.00;;;15.20;99.90;;;;;;10550735;28;20036;-81
2022/07/28 04:34:26;;;;;;;7.25;2.90;;;15.20;99.90;;;;;;10554479;28;20039;-81
2022/07/28 04:39:27;;;;;;;7.18;2.97;;;15.30;99.90;;;;;;10565840;28;20020;-81
2022/07/28 04:44:27;;;;;;;4.45;3.00;;;15.40;99.90;;;;;;10537566;28;20024;-81
2022/07/28 04:49:28;;;;;;;4.72;2.80;;;15.50;99.90;;;;;;10540920;28;20024;-81
2022/07/28 04:54:28;;;;;;;7.93;2.88;;;15.70;99.90;;;;;;10551789;28;20036;-81
2022/07/28 04:59:29;;;;;;;7.75;3.00;;;15.80;99.90;;;;;;10556135;28;20114;-81
2022/07/28 05:04:30;;;;;;;6.15;2.40;;;15.90;99.90;;;;;;10548082;28;20032;-80
2022/07/28 05:09:31;;;;;;;4.93;2.90;;;15.90;99.90;;;;;;10550789;28;20474;-80
2022/07/28 05:14:32;;;;;;;5.80;2.88;;;16.00;99.90;;;;;;10545098;28;20087;-81
2022/07/28 05:19:33;;;;;;;4.57;2.92;;;16.00;99.90;;;;;;10557713;28;20455;-82
2022/07/28 05:24:34;;;;;;;6.07;3.00;;;16.00;99.90;;;;;;10552242;28;20658;-81
2022/07/28 05:29:37;;;;;;;5.53;3.00;;;15.90;99.90;;;;;;10557454;28;20038;-81
2022/07/28 05:34:38;;;;;;;6.50;2.90;;;15.90;99.90;;;;;;10545343;28;20035;-81
2022/07/28 05:39:38;;;;;;;4.40;2.90;;;16.00;99.90;;;;;;10532147;22;20488;-81
2022/07/28 05:44:39;;;;;;;6.68;3.20;;;16.10;99.90;;;;;;10521913;28;20047;-81
2022/07/28 05:49:39;;;;;;;4.32;3.38;;;16.20;99.90;;;;;;10520315;28;20046;-81
2022/07/28 05:54:40;;;;;;;6.03;3.33;;;16.30;99.90;;;;;;10505929;28;20047;-81
2022/07/28 05:59:40;;;;;;;9.82;3.20;;;16.60;99.90;;;;;;10527731;28;20033;-80
2022/07/28 06:04:41;;;;;;;6.93;3.28;;;16.80;99.90;;;;;;10506801;28;20036;-79
2022/07/28 06:09:41;;;;;;;6.50;3.17;;;17.10;99.90;;;;;;10503168;28;20028;-79
2022/07/28 06:14:42;;;;;;;5.60;2.83;;;17.30;99.90;;;;;;10515518;28;20044;-79
2022/07/28 06:19:43;;;;;;;4.38;2.80;;;17.50;99.10;;;;;;10512406;28;20047;-80
2022/07/28 06:24:43;;;;;;;5.22;2.50;;;17.80;99.90;;;;;;10512818;28;20032;-81
2022/07/28 06:29:44;;;;;;;6.25;2.80;;;18.20;99.60;;;;;;10511328;28;20024;-79
2022/07/28 06:34:45;;;;;;;7.35;2.80;;;18.50;98.20;;;;;;10540022;22;20575;-79
2022/07/28 06:39:45;;;;;;;8.02;2.70;;;18.90;98.10;;;;;;10533373;28;20020;-80
2022/07/28 06:44:46;;;;;;;4.43;2.20;;;19.10;95.30;;;;;;10531571;28;20732;-80
2022/07/28 06:49:46;;;;;;;3.65;2.20;;;19.20;93.60;;;;;;10531796;28;20123;-83
2022/07/28 06:54:50;;;;;;;6.55;2.58;;;19.20;93.10;;;;;;10531381;28;20039;-85
2022/07/28 06:59:50;;;;;;;4.70;2.15;;;19.30;94.10;;;;;;10532847;28;20571;-82
2022/07/28 07:04:51;;;;;;;4.88;2.30;;;19.40;94.10;;;;;;10531985;28;20116;-83
2022/07/28 07:09:52;;;;;;;3.42;1.85;;;19.60;91.20;;;;;;10528944;28;20020;-82
2022/07/28 07:14:52;;;;;;;3.38;1.90;;;20.40;93.00;;;;;;10530632;28;20032;-81
2022/07/28 07:19:53;;;;;;;3.80;2.05;;;21.90;90.80;;;;;;10531633;28;20623;-82
2022/07/28 07:24:54;;;;;;;4.80;1.95;;;23.10;86.40;;;;;;10531544;28;20104;-81
2022/07/28 07:29:54;;;;;;;2.30;1.70;;;23.80;77.80;;;;;;10531144;28;20043;-84
2022/07/28 07:34:55;;;;;;;6.20;1.75;;;24.30;78.80;;;;;;10526551;28;20052;-82
2022/07/28 07:39:55;;;;;;;4.35;1.42;;;24.40;71.90;;;;;;10524761;28;20012;-82
2022/07/28 07:44:56;;;;;;;3.38;1.48;;;23.60;66.40;;;;;;10531279;28;20032;-81
2022/07/28 07:49:56;;;;;;;4.47;1.42;;;22.80;71.60;;;;;;10530393;28;20038;-82
2022/07/28 07:54:57;;;;;;;3.40;1.85;;;22.90;70.70;;;;;;10523185;28;20086;-83
2022/07/28 07:59:57;;;;;;;4.07;1.63;;;22.80;69.20;;;;;;10525991;28;20070;-86
2022/07/28 08:04:59;;;;;;;3.75;1.70;;;22.40;70.60;;;;;;10526093;28;20024;-82
2022/07/28 08:10:00;;;;;;;7.80;1.80;;;22.30;69.00;;;;;;10520239;28;20032;-83
2022/07/28 08:15:01;;;;;;;6.38;1.50;;;22.40;68.20;;;;;;10526191;28;20039;-82
2022/07/28 08:20:03;;;;;;;2.92;1.63;;;22.30;67.50;;;;;;10527116;28;20052;-81
2022/07/28 08:25:04;;;;;;;5.28;1.70;;;22.60;70.40;;;;;;10512459;28;20027;-83
2022/07/28 08:30:05;;;;;;;1.52;0.93;;;23.20;70.20;;;;;;10525360;28;20081;-84
2022/07/28 08:35:06;;;;;;;2.80;1.52;;;23.40;70.80;;;;;;10515381;28;20059;-85
2022/07/28 08:40:13;;;;;;;3.38;1.52;;;23.60;66.60;;;;;;10520565;28;20035;-83
2022/07/28 08:45:16;;;;;;;2.33;1.25;;;23.80;66.00;;;;;;10523217;28;20098;-82
2022/07/28 08:50:23;;;;;;;2.45;1.20;;;23.70;65.50;;;;;;10523680;28;20036;-84
2022/07/28 08:55:27;;;;;;;3.40;1.50;;;23.50;66.30;;;;;;10515886;28;20531;-83
2022/07/28 09:00:28;;;;;;;3.40;1.30;;;23.60;66.20;;;;;;10524215;28;20525;-82
2022/07/28 09:05:29;;;;;;;4.78;1.30;;;23.70;67.20;;;;;;10526226;28;20032;-81
2022/07/28 09:10:30;;;;;;;1.65;1.30;;;24.20;68.80;;;;;;10533882;28;20024;-82
2022/07/28 09:15:32;;;;;;;3.92;1.17;;;24.70;67.80;;;;;;10534078;28;20028;-82
2022/07/28 09:20:35;;;;;;;1.67;1.17;;;24.80;63.80;;;;;;10521533;28;20020;-82
2022/07/28 09:25:36;;;;;;;3.65;1.17;;;25.00;65.10;;;;;;10529445;28;20032;-83
2022/07/28 09:30:40;;;;;;;4.55;1.67;;;25.40;64.80;;;;;;10532276;28;20025;-82
2022/07/28 09:36:24;;;;;;;5.13;2.03;;;25.70;64.60;;;;;;10522826;28;20052;-83
2022/07/28 09:41:25;;;;;;;6.75;1.52;;;25.80;59.00;;;;;;10522940;28;20294;-82
2022/07/28 09:46:26;;;;;;;2.53;1.13;;;25.90;63.20;;;;;;10529815;28;20035;-85
2022/07/28 09:51:32;;;;;;;2.65;1.30;;;26.20;66.20;;;;;;10533424;28;20046;-83
2022/07/28 09:56:33;;;;;;;3.70;1.58;;;26.30;63.80;;;;;;10524452;28;20054;-86
2022/07/28 10:01:59;;;;;;;6.00;1.70;;;25.90;59.20;;;;;;10525179;28;20020;-82
2022/07/28 10:07:05;;;;;;;4.97;1.27;;;25.40;61.40;;;;;;10525793;28;20028;-82
2022/07/28 10:12:19;;;;;;;4.05;1.48;;;25.50;64.40;;;;;;10529187;28;20048;-82
2022/07/28 10:17:28;;;;;;;5.60;2.00;;;26.00;64.70;;;;;;10526053;28;20382;-82
2022/07/28 10:22:32;;;;;;;3.60;1.48;;;26.30;58.80;;;;;;10531032;28;20122;-83
2022/07/28 10:27:33;;;;;;;4.33;1.43;;;26.40;63.30;;;;;;10532571;28;20024;-83
2022/07/28 10:32:40;;;;;;;4.00;1.73;;;26.00;59.30;;;;;;10532263;28;20016;-82
2022/07/28 10:37:57;;;;;;;4.50;1.83;;;25.70;60.70;;;;;;10530934;28;20060;-85
2022/07/28 10:42:59;;;;;;;3.47;1.90;;;25.50;65.20;;;;;;10532038;28;20028;-83
2022/07/28 10:48:00;;;;;;;3.33;1.88;;;25.80;63.70;;;;;;10526078;28;20039;-83
2022/07/28 10:53:08;;;;;;;5.05;1.85;;;25.50;59.70;;;;;;10531298;28;20073;-83
2022/07/28 10:58:18;;;;;;;2.67;1.77;;;25.60;65.70;;;;;;10522027;28;20038;-82
2022/07/28 11:03:41;;;;;;;3.30;1.60;;;25.60;61.50;;;;;;10524675;28;20024;-83
2022/07/28 11:08:42;;;;;;;4.30;1.50;;;25.50;62.30;;;;;;10518685;28;20032;-84
2022/07/28 11:13:47;;;;;;;2.97;1.60;;;25.70;62.60;;;;;;10524506;28;20032;-86
2022/07/28 11:19:17;;;;;;;3.47;1.92;;;26.10;63.00;;;;;;10515524;28;20498;-82
2022/07/28 11:24:18;;;;;;;3.08;1.65;;;26.20;60.80;;;;;;10520007;28;20391;-83
2022/07/28 11:29:19;;;;;;;2.45;1.70;;;26.70;64.90;;;;;;10525789;28;20043;-85
2022/07/28 11:34:22;;;;;;;2.65;1.63;;;27.20;61.20;;;;;;10526628;28;20059;-83
2022/07/28 11:39:43;;;;;;;2.55;1.63;;;27.50;63.20;;;;;;10519664;28;20028;-84
2022/07/28 11:44:44;;;;;;;5.72;1.90;;;26.80;59.00;;;;;;10524616;28;20027;-85
2022/07/28 11:50:05;;;;;;;3.17;1.88;;;26.00;60.80;;;;;;10547783;28;20471;-83
2022/07/28 11:55:16;;;;;;;3.10;1.83;;;26.00;61.20;;;;;;10561236;28;20040;-83
2022/07/28 12:00:21;;;;;;;2.78;1.85;;;25.70;62.00;;;;;;10540675;28;20030;-84
2022/07/28 12:05:22;;;;;;;3.85;2.00;;;25.70;62.30;;;;;;10550082;28;20115;-83
2022/07/28 12:10:31;;;;;;;3.28;1.70;;;25.90;65.00;;;;;;10535610;22;20064;-84
2022/07/28 12:15:33;;;;;;;4.70;2.17;;;26.30;59.90;;;;;;10444028;28;20029;-85
2022/07/28 12:20:51;;;;;;;5.03;1.70;;;26.70;61.80;;;;;;10444823;28;20032;-84
2022/07/28 12:25:55;;;;;;;7.47;2.15;;;26.50;60.40;;;;;;10427100;28;20111;-86
2022/07/28 12:31:09;;;;;;;3.03;1.47;;;26.50;62.00;;;;;;10468447;23;20056;-84
2022/07/28 12:36:10;;;;;;;2.37;1.80;;;27.00;62.50;;;;;;10508042;28;20032;-84
2022/07/28 12:41:14;;;;;;;2.78;2.20;;;27.00;60.50;;;;;;10530575;28;20471;-85
2022/07/28 12:46:24;;;;;;;5.75;2.03;;;26.10;59.90;;;;;;10516023;28;20024;-84
2022/07/28 12:51:40;;;;;;;3.88;2.17;;;25.70;61.60;;;;;;10508979;28;20177;-85
2022/07/28 12:56:46;;;;;;;5.82;2.17;;;25.60;63.50;;;;;;10515181;28;20691;-84
2022/07/28 13:01:57;;;;;;;7.45;2.20;;;26.00;62.20;;;;;;10515613;28;20108;-84
2022/07/28 13:06:58;;;;;;;4.25;2.10;;;26.10;61.60;;;;;;10477745;28;20575;-85
2022/07/28 13:11:58;;;;;;;3.47;2.10;;;26.30;63.90;;;;;;10490829;28;20066;-83
2022/07/28 13:16:59;;;;;;;3.33;1.80;;;26.30;60.70;;;;;;10489936;28;20506;-83
2022/07/28 13:21:59;;;;;;;4.75;2.20;;;26.50;63.00;;;;;;10489401;28;20032;-81
2022/07/28 13:27:01;;;;;;;3.40;2.45;;;26.50;60.90;;;;;;10486619;28;20024;-83
2022/07/28 13:32:10;;;;;;;4.40;2.03;;;26.50;63.60;;;;;;10472355;28;20526;-85
2022/07/28 13:37:11;;;;;;;2.53;1.60;;;26.80;62.00;;;;;;10483743;28;20041;-84
2022/07/28 13:42:12;;;;;;;5.03;2.60;;;27.20;62.90;;;;;;10490545;28;20085;-82
2022/07/28 13:47:12;;;;;;;5.40;2.97;;;27.10;59.50;;;;;;10490332;28;20038;-82
2022/07/28 13:52:16;;;;;;;7.30;2.30;;;27.00;60.90;;;;;;10490687;28;20028;-86
2022/07/28 13:57:17;;;;;;;4.30;2.08;;;26.80;61.60;;;;;;10489213;28;20059;-84
2022/07/28 14:02:17;;;;;;;3.47;2.17;;;27.00;61.20;;;;;;10484565;28;20051;-84
2022/07/28 14:19:15;;;;;;;4.63;2.35;;;26.40;60.40;;;;;;10474673;28;20036;-85
2022/07/28 14:24:15;;;;;;;5.43;2.35;;;25.60;60.00;;;;;;10488865;28;20455;-86
2022/07/28 14:29:16;;;;;;;3.70;2.20;;;25.20;61.60;;;;;;10486540;28;20039;-89
2022/07/28 14:34:17;;;;;;;2.20;1.77;;;25.00;63.40;;;;;;10483819;28;20052;-87
2022/07/28 14:39:18;;;;;;;5.07;2.15;;;25.00;63.60;;;;;;10467206;28;20024;-83
2022/07/28 14:44:19;;;;;;;4.97;2.53;;;25.20;62.90;;;;;;10488790;28;20475;-84
2022/07/28 14:49:19;;;;;;;6.65;2.83;;;25.10;63.30;;;;;;10486867;28;20036;-84
2022/07/28 14:54:20;;;;;;;6.00;2.83;;;25.00;63.50;;;;;;10488399;28;20174;-84
2022/07/28 14:59:46;;;;;;;4.75;2.58;;;25.00;62.80;;;;;;10489024;28;20028;-86
2022/07/28 15:04:47;;;;;;;11.45;2.55;;;25.20;62.30;;;;;;10480458;28;20032;-83
2022/07/28 15:09:47;;;;;;;3.65;2.03;;;25.30;64.50;;;;;;10484567;28;20423;-83
2022/07/28 15:14:48;;;;;;;3.60;1.88;;;25.10;61.90;;;;;;10487188;28;20090;-84
2022/07/28 15:19:48;;;;;;;3.47;2.15;;;25.00;64.50;;;;;;10479964;28;20031;-84
2022/07/28 15:24:49;;;;;;;8.63;2.63;;;25.00;62.60;;;;;;10483943;28;20120;-83
2022/07/28 15:29:50;;;;;;;3.78;2.17;;;25.00;63.50;;;;;;10485820;28;20052;-83
2022/07/28 15:34:50;;;;;;;2.97;2.10;;;24.80;63.20;;;;;;10485355;28;20562;-83
2022/07/28 15:39:54;;;;;;;3.83;2.00;;;24.70;64.30;;;;;;10483755;28;20032;-84
2022/07/28 15:45:05;;;;;;;3.40;2.20;;;24.60;62.50;;;;;;10482951;28;20056;-84
2022/07/28 15:50:06;;;;;;;6.25;2.55;;;24.60;63.10;;;;;;10462520;28;20028;-85
2022/07/28 15:55:07;;;;;;;2.47;2.10;;;24.60;64.10;;;;;;10465323;28;20041;-83
2022/07/28 16:00:08;;;;;;;3.50;2.10;;;24.60;63.70;;;;;;10483536;28;20059;-84
2022/07/28 16:05:09;;;;;;;3.38;2.08;;;24.60;63.40;;;;;;10466952;28;20028;-87
2022/07/28 16:10:09;;;;;;;3.13;1.90;;;24.50;62.90;;;;;;10484902;28;20530;-84
2022/07/28 16:15:10;;;;;;;2.95;1.67;;;24.50;63.30;;;;;;10483976;28;20043;-84
2022/07/28 16:20:11;;;;;;;3.10;2.00;;;24.40;65.50;;;;;;10472190;28;20082;-88
2022/07/28 16:25:15;;;;;;;3.33;2.28;;;24.40;65.00;;;;;;10482020;28;20135;-85
2022/07/28 16:30:17;;;;;;;4.13;2.22;;;24.30;65.20;;;;;;10483822;28;20488;-85
2022/07/28 16:35:18;;;;;;;3.22;1.98;;;24.20;64.30;;;;;;10482584;28;20025;-83
2022/07/28 16:40:19;;;;;;;7.93;2.80;;;24.10;64.00;;;;;;10482814;28;20588;-86
2022/07/28 16:45:19;;;;;;;3.50;2.13;;;24.10;65.60;;;;;;10468457;28;20026;-83
2022/07/28 16:50:22;;;;;;;3.33;2.10;;;24.00;65.70;;;;;;10483757;28;20036;-87
2022/07/28 16:55:23;;;;;;;8.40;3.63;;;23.90;65.40;;;;;;10467622;28;20037;-84
2022/07/28 17:00:25;;;;;;;4.57;2.20;;;23.80;66.20;;;;;;10483151;28;20037;-84
2022/07/28 17:05:28;;;;;;;4.10;2.20;;;23.80;66.20;;;;;;10484886;28;20032;-83
2022/07/28 17:10:29;;;;;;;2.47;1.95;;;23.60;67.40;;;;;;10485455;28;20625;-83
2022/07/28 17:15:30;;;;;;;3.95;2.10;;;23.50;67.90;;;;;;10484047;28;20044;-83
2022/07/28 17:20:31;;;;;;;2.78;1.88;;;23.50;67.40;;;;;;10480153;28;20043;-85
2022/07/28 17:25:31;;;;;;;2.80;1.70;;;23.40;68.80;;;;;;10480258;28;20426;-84
2022/07/28 17:30:32;;;;;;;4.53;2.22;;;23.30;68.60;;;;;;10489832;28;20458;-84
2022/07/28 17:35:33;;;;;;;4.22;2.20;;;23.10;68.20;;;;;;10491429;28;20040;-83
2022/07/28 17:40:35;;;;;;;4.72;2.08;;;23.00;68.60;;;;;;10501704;28;20029;-82
2022/07/28 17:45:37;;;;;;;5.43;2.13;;;22.80;68.10;;;;;;10491910;28;20036;-84
2022/07/28 17:50:37;;;;;;;3.47;1.98;;;22.70;69.20;;;;;;10484975;28;20111;-84
2022/07/28 17:55:39;;;;;;;2.47;1.80;;;22.40;69.40;;;;;;10483331;28;20475;-82
2022/07/28 18:00:44;;;;;;;2.80;1.90;;;22.30;69.60;;;;;;10473580;28;20541;-82
2022/07/28 18:05:45;;;;;;;4.43;2.47;;;22.20;71.70;;;;;;10487874;28;20029;-83
2022/07/28 18:10:49;;;;;;;3.25;1.83;;;21.90;72.50;;;;;;10488316;28;20074;-84
2022/07/28 18:15:50;;;;;;;3.90;2.60;;;21.60;73.80;;;;;;10462998;28;20106;-83
2022/07/28 18:20:51;;;;;;;3.72;2.30;;;21.30;75.00;;;;;;10487777;28;20017;-84
2022/07/28 18:25:52;;;;;;;3.85;2.28;;;21.00;76.30;;;;;;10465648;28;20464;-84
2022/07/28 18:30:53;;;;;;;3.65;2.10;;;20.50;77.40;;;;;;10479155;28;20121;-83
2022/07/28 18:35:54;;;;;;;3.67;2.08;;;20.20;79.60;;;;;;10484636;28;20119;-83
2022/07/28 18:40:54;;;;;;;4.03;2.33;;;19.80;80.80;;;;;;10479804;28;20032;-84
2022/07/28 18:45:55;;;;;;;3.90;2.38;;;19.40;82.10;;;;;;10485462;28;20032;-83
2022/07/28 18:50:57;;;;;;;4.60;2.78;;;19.00;83.70;;;;;;10486674;28;20445;-83
2022/07/28 18:55:58;;;;;;;5.32;2.72;;;18.70;84.40;;;;;;10489842;28;20028;-83
2022/07/28 19:00:59;;;;;;;2.53;2.30;;;18.40;85.60;;;;;;10483437;28;20029;-87
2022/07/28 19:06:00;;;;;;;4.88;2.95;;;18.10;86.90;;;;;;10465450;28;20124;-88
2022/07/28 19:11:00;;;;;;;7.63;2.95;;;17.90;88.20;;;;;;10466046;28;20029;-87
2022/07/28 19:16:01;;;;;;;5.03;2.88;;;17.80;88.90;;;;;;10473172;28;20124;-87
2022/07/28 19:21:02;;;;;;;6.90;3.55;;;17.60;90.00;;;;;;10487543;28;20093;-85
2022/07/28 19:26:02;;;;;;;6.25;3.13;;;17.40;90.80;;;;;;10471646;28;20074;-81
2022/07/28 19:31:03;;;;;;;6.72;3.42;;;17.20;91.60;;;;;;10486844;28;20079;-82
2022/07/28 19:36:04;;;;;;;6.63;3.05;;;17.20;92.00;;;;;;10484842;28;20041;-83
2022/07/28 19:41:04;;;;;;;6.38;3.17;;;17.10;93.20;;;;;;10463195;28;20036;-83
2022/07/28 19:46:05;;;;;;;7.97;3.55;;;16.90;93.70;;;;;;10484909;28;20035;-84
2022/07/28 19:51:06;;;;;;;6.28;3.63;;;16.80;94.40;;;;;;10484497;28;20065;-82
2022/07/28 19:56:06;;;;;;;6.10;4.00;;;16.80;95.30;;;;;;10484864;28;20041;-83
2022/07/28 20:01:07;;;;;;;8.27;4.22;;;16.80;95.60;;;;;;10483165;28;20040;-83
2022/07/28 20:06:08;;;;;;;6.03;4.20;;;16.70;95.80;;;;;;10484802;28;20493;-82
2022/07/28 20:11:12;;;;;;;9.48;4.30;;;16.70;96.50;;;;;;10466154;28;20738;-83
2022/07/28 20:16:12;;;;;;;6.72;3.47;;;16.70;96.80;;;;;;10483915;28;20036;-83
2022/07/28 20:21:13;;;;;;;6.47;4.55;;;16.70;96.00;;;;;;10471817;28;20035;-84
2022/07/28 20:26:13;;;;;;;5.38;3.72;;;16.70;96.20;;;;;;10483221;28;20748;-82
2022/07/28 20:31:15;;;;;;;6.00;3.75;;;16.70;96.40;;;;;;10485697;28;20076;-83
2022/07/28 20:36:16;;;;;;;8.15;4.07;;;16.70;96.60;;;;;;10483162;28;20067;-84
2022/07/28 20:41:16;;;;;;;11.27;5.28;;;16.60;96.90;;;;;;10485443;28;20028;-83
2022/07/28 20:46:24;;;;;;;8.32;4.00;;;16.70;96.40;;;;;;10483906;28;20098;-83
2022/07/28 20:51:26;;;;;;;11.75;4.30;;;16.70;96.10;;;;;;10467843;28;20107;-82
2022/07/28 20:56:26;;;;;;;7.32;4.05;;;16.80;95.30;;;;;;10478906;28;20793;-81
2022/07/28 21:01:27;;;;;;;6.65;4.35;;;16.90;95.10;;;;;;10477529;28;20024;-81
2022/07/28 21:06:27;;;;;;;5.88;3.92;;;16.90;95.20;;;;;;10472909;28;20571;-84
2022/07/28 21:11:28;;;;;;;6.82;4.03;;;16.90;95.00;;;;;;10487541;28;20081;-81
2022/07/28 21:16:29;;;;;;;9.77;4.78;;;16.80;94.80;;;;;;10486880;28;20048;-82
2022/07/28 21:21:30;;;;;;;6.65;3.92;;;16.70;95.20;;;;;;10486047;28;20029;-81
2022/07/28 21:26:30;;;;;;;9.02;3.83;;;16.60;95.20;;;;;;10490980;28;20032;-81
2022/07/28 21:31:31;;;;;;;6.55;4.10;;;16.60;94.80;;;;;;10490229;28;20055;-82
2022/07/28 21:36:33;;;;;;;8.05;3.53;;;16.60;94.60;;;;;;10490749;28;20375;-82
2022/07/28 21:41:33;;;;;;;34.35;32.75;;;16.60;94.30;;;;;;10490417;28;20422;-82
2022/07/28 21:46:35;;;;;;;287.08;196.85;;;16.60;94.10;;;;;;10492087;28;20036;-81
2022/07/28 21:51:36;;;;;;;8.75;4.10;;;16.60;93.80;;;;;;10491065;28;20483;-82
2022/07/28 21:56:36;;;;;;;6.03;3.83;;;16.60;93.50;;;;;;10492043;28;20127;-81
2022/07/28 22:01:37;;;;;;;8.68;3.63;;;16.50;93.70;;;;;;10490616;28;20539;-81
2022/07/28 22:06:38;;;;;;;10.93;4.00;;;16.40;93.90;;;;;;10490817;28;20024;-81
2022/07/28 22:11:38;;;;;;;6.32;4.10;;;16.30;94.00;;;;;;10491167;28;20017;-81
2022/07/28 22:16:39;;;;;;;7.50;3.50;;;16.20;94.40;;;;;;10490187;28;20033;-81
2022/07/28 22:21:39;;;;;;;5.50;3.80;;;16.10;94.70;;;;;;10493649;28;20466;-81
2022/07/28 22:26:40;;;;;;;6.78;3.80;;;16.10;95.10;;;;;;10490033;28;20036;-81
2022/07/28 22:31:40;;;;;;;7.82;3.90;;;16.00;95.10;;;;;;10487291;28;20060;-80
2022/07/28 22:36:41;;;;;;;10.43;3.97;;;15.90;95.50;;;;;;10491284;28;20157;-82
2022/07/28 22:41:41;;;;;;;7.38;3.70;;;15.80;95.60;;;;;;10489818;28;20032;-80
2022/07/28 22:46:42;;;;;;;6.38;3.60;;;15.80;96.10;;;;;;10488507;28;20064;-80
2022/07/28 22:51:45;;;;;;;6.38;3.83;;;15.70;96.50;;;;;;10499458;28;20040;-82
2022/07/28 22:56:46;;;;;;;8.00;4.35;;;15.60;97.10;;;;;;10486987;28;20093;-83
2022/07/28 23:01:46;;;;;;;10.57;4.50;;;15.50;98.10;;;;;;10489057;28;20429;-80
2022/07/28 23:06:47;;;;;;;7.28;4.32;;;15.30;99.30;;;;;;10487730;28;20608;-82
2022/07/28 23:11:47;;;;;;;10.32;4.93;;;15.30;99.90;;;;;;10470471;28;20029;-83
2022/07/28 23:16:48;;;;;;;10.52;4.88;;;15.30;99.90;;;;;;10489553;28;20127;-81
2022/07/28 23:21:49;;;;;;;9.40;4.70;;;15.40;99.90;;;;;;10494154;28;20025;-81
2022/07/28 23:26:49;;;;;;;8.48;5.35;;;15.50;99.90;;;;;;10486462;28;20086;-83
2022/07/28 23:31:51;;;;;;;12.52;5.32;;;15.40;99.90;;;;;;10493195;28;20338;-82
2022/07/28 23:36:51;;;;;;;9.18;5.40;;;15.30;99.90;;;;;;10481780;28;20059;-80
2022/07/28 23:41:52;;;;;;;8.65;5.57;;;15.40;99.90;;;;;;10468302;28;20146;-81
2022/07/28 23:46:52;;;;;;;10.07;5.78;;;15.30;99.90;;;;;;10489341;28;20112;-82
2022/07/28 23:51:53;;;;;;;6.60;4.85;;;15.30;99.90;;;;;;10485057;28;20032;-81
2022/07/28 23:56:55;;;;;;;9.30;5.15;;;15.30;99.90;;;;;;10483520;28;20040;-81
